Time;durP1;ratioP1;P1;durP2;ratioP2;P2;SDS_P1;SDS_P2;PMS_P1;PMS_P2;Temp;Humidity;BMP_temperature;BMP_pressure;BME280_temperature;BME280_humidity;BME280_pressure;Samples;Min_cycle;Max_cycle;Signal;HPM_P1;HPM_P2
2023/06/04 00:00:09;;;;;;;2.75;1.50;;;;;;;14.10;66.79;102277.06;4987936;28;20039;-71
2023/06/04 00:02:35;;;;;;;1.98;1.60;;;;;;;14.06;66.87;102278.97;4987886;28;20061;-71
2023/06/04 00:05:00;;;;;;;1.55;1.40;;;;;;;13.98;66.98;102280.97;4989354;28;20034;-71
2023/06/04 00:07:26;;;;;;;2.55;1.40;;;;;;;13.98;66.74;102278.34;4985220;28;20338;-71
2023/06/04 00:09:53;;;;;;;10.18;5.03;;;;;;;13.96;67.06;102281.00;4988434;28;20038;-71
2023/06/04 00:12:18;;;;;;;3.30;1.80;;;;;;;13.90;67.13;102282.97;4982265;28;20276;-71
2023/06/04 00:14:44;;;;;;;4.10;1.65;;;;;;;13.97;66.99;102277.47;4984625;28;20223;-71
2023/06/04 00:17:10;;;;;;;3.13;2.17;;;;;;;13.89;67.30;102276.00;4984508;28;20314;-71
2023/06/04 00:19:38;;;;;;;4.88;1.83;;;;;;;13.88;67.16;102280.41;4985217;28;20090;-71
2023/06/04 00:22:06;;;;;;;4.22;1.65;;;;;;;13.90;66.73;102275.94;4984737;28;20038;-71
2023/06/04 00:24:31;;;;;;;1.65;1.40;;;;;;;13.90;66.99;102275.06;4969398;28;20029;-71
2023/06/04 00:26:57;;;;;;;4.80;2.05;;;;;;;13.86;67.30;102276.09;4987025;28;20038;-71
2023/06/04 00:29:22;;;;;;;1.42;1.33;;;;;;;13.94;66.89;102279.34;4988078;28;20077;-71
2023/06/04 00:31:48;;;;;;;9.13;1.50;;;;;;;13.89;66.48;102278.63;4972364;28;20109;-71
2023/06/04 00:34:13;;;;;;;3.38;1.52;;;;;;;13.85;66.80;102275.22;4975547;28;20038;-71
2023/06/04 00:36:40;;;;;;;1.88;1.65;;;;;;;13.86;66.55;102281.34;4981112;28;20205;-71
2023/06/04 00:39:05;;;;;;;2.42;1.55;;;;;;;13.61;67.32;102282.13;4972343;28;20363;-71
2023/06/04 00:41:31;;;;;;;2.58;2.00;;;;;;;13.67;67.15;102281.06;4973457;28;20043;-71
2023/06/04 00:43:56;;;;;;;2.15;1.58;;;;;;;13.55;67.21;102283.16;4971114;28;20227;-71
2023/06/04 00:46:26;;;;;;;7.20;1.70;;;;;;;13.56;67.26;102286.66;4979062;28;20058;-71
2023/06/04 00:48:52;;;;;;;3.13;1.65;;;;;;;13.51;67.23;102272.78;4978262;28;20034;-71
2023/06/04 00:51:20;;;;;;;1.48;1.35;;;;;;;13.42;67.57;102279.16;4978996;28;20357;-71
2023/06/04 00:53:45;;;;;;;2.17;1.65;;;;;;;13.42;67.20;102282.69;4979110;28;20357;-71
2023/06/04 00:56:12;;;;;;;2.58;1.30;;;;;;;13.41;67.63;102280.09;4977573;28;20097;-71
2023/06/04 00:58:42;;;;;;;3.70;1.48;;;;;;;13.39;67.15;102284.53;4977636;28;20049;-71
2023/06/04 01:04:41;;;;;;;3.63;1.30;;;;;;;13.25;67.66;102287.53;4959511;28;20061;-71
2023/06/04 01:07:09;;;;;;;3.53;1.60;;;;;;;13.27;67.35;102283.06;4975211;28;20104;-71
2023/06/04 01:09:36;;;;;;;1.60;1.20;;;;;;;13.35;66.87;102285.50;4977872;28;20337;-71
2023/06/04 01:12:04;;;;;;;2.17;1.40;;;;;;;13.32;67.10;102290.88;4978768;28;20035;-71
2023/06/04 01:14:33;;;;;;;3.47;1.52;;;;;;;13.35;67.02;102289.03;4978253;28;20038;-71
2023/06/04 01:17:36;;;;;;;1.20;1.10;;;;;;;13.35;66.69;102291.66;4960949;28;20085;-71
2023/06/04 01:20:36;;;;;;;2.55;1.50;;;;;;;13.30;67.11;102283.00;4978764;28;20080;-71
2023/06/04 01:23:43;;;;;;;2.17;1.30;;;;;;;13.18;67.26;102294.72;4978445;28;20058;-71
2023/06/04 01:26:10;;;;;;;7.88;1.27;;;;;;;13.23;66.75;102295.47;4898792;29;20288;-71
2023/06/04 01:28:36;;;;;;;1.50;1.15;;;;;;;13.22;67.00;102298.13;4966002;28;20047;-71
2023/06/04 01:31:03;;;;;;;2.30;1.48;;;;;;;13.13;66.71;102290.50;4978424;28;20349;-71
2023/06/04 01:33:29;;;;;;;1.75;1.38;;;;;;;13.11;67.15;102292.31;4978164;28;20308;-71
2023/06/04 01:35:54;;;;;;;2.03;1.50;;;;;;;13.07;67.10;102291.53;4961131;28;20054;-71
2023/06/04 01:38:20;;;;;;;2.33;1.20;;;;;;;12.99;67.39;102291.75;4978486;28;20061;-71
2023/06/04 01:40:46;;;;;;;4.40;1.30;;;;;;;12.98;67.62;102290.03;4977694;28;20081;-71
2023/06/04 01:43:12;;;;;;;2.63;1.25;;;;;;;13.03;67.52;102289.91;4978828;28;20533;-71
2023/06/04 01:45:37;;;;;;;3.90;1.35;;;;;;;12.94;67.69;102287.53;4978642;28;20047;-71
2023/06/04 01:48:05;;;;;;;1.30;1.20;;;;;;;12.89;67.80;102286.78;4968453;28;20042;-71
2023/06/04 01:50:30;;;;;;;2.03;1.50;;;;;;;12.90;67.83;102283.25;4941888;29;20032;-71
2023/06/04 01:52:56;;;;;;;1.35;1.25;;;;;;;12.83;67.81;102280.78;4958959;29;20050;-71
2023/06/04 01:55:22;;;;;;;1.52;1.42;;;;;;;12.91;68.00;102284.97;4959252;29;20259;-71
2023/06/04 01:57:47;;;;;;;1.30;1.20;;;;;;;12.81;68.49;102279.97;4941123;29;20265;-71
2023/06/04 02:00:14;;;;;;;3.60;2.00;;;;;;;12.84;68.10;102279.91;4959229;28;20109;-71
2023/06/04 02:02:41;;;;;;;2.33;1.33;;;;;;;12.83;68.21;102282.56;4959051;29;20134;-71
2023/06/04 02:05:07;;;;;;;1.85;1.50;;;;;;;12.74;68.12;102280.19;4958395;29;20043;-71
2023/06/04 02:07:38;;;;;;;2.17;1.65;;;;;;;12.66;67.91;102283.00;4958884;29;20258;-71
2023/06/04 02:10:08;;;;;;;3.53;1.48;;;;;;;12.60;68.52;102280.53;4958862;29;20114;-71
2023/06/04 02:12:37;;;;;;;3.33;1.83;;;;;;;12.52;68.60;102277.25;4958849;29;20043;-71
2023/06/04 02:15:03;;;;;;;2.17;1.55;;;;;;;12.60;68.20;102281.41;4958907;29;20069;-72
2023/06/04 02:17:32;;;;;;;1.85;1.40;;;;;;;12.53;68.61;102282.44;4958670;29;20043;-72
2023/06/04 02:19:58;;;;;;;2.33;1.10;;;;;;;12.60;68.40;102275.28;4958688;29;20031;-72
2023/06/04 02:22:25;;;;;;;1.20;1.10;;;;;;;12.56;67.63;102277.13;4959232;29;20039;-72
2023/06/04 02:24:50;;;;;;;4.60;1.27;;;;;;;12.59;67.71;102282.31;4958622;29;20059;-72
2023/06/04 02:27:16;;;;;;;1.50;1.30;;;;;;;12.54;67.78;102278.09;4959225;29;20046;-72
2023/06/04 02:29:41;;;;;;;1.58;1.30;;;;;;;12.43;67.71;102284.47;4958716;29;20222;-71
2023/06/04 02:32:08;;;;;;;2.97;1.35;;;;;;;12.45;68.12;102281.81;4958067;29;20059;-71
2023/06/04 02:34:36;;;;;;;2.25;1.20;;;;;;;12.35;68.08;102280.31;4958446;29;20058;-71
2023/06/04 02:37:02;;;;;;;1.13;1.07;;;;;;;12.24;68.19;102280.56;4959750;28;20042;-71
2023/06/04 02:39:28;;;;;;;2.20;1.45;;;;;;;12.17;68.18;102281.63;4962181;29;20042;-71
2023/06/04 02:41:53;;;;;;;1.45;1.20;;;;;;;12.17;68.42;102287.75;4961968;29;20047;-71
2023/06/04 02:44:19;;;;;;;2.08;1.30;;;;;;;12.10;68.60;102280.91;4962312;29;20067;-71
2023/06/04 02:46:45;;;;;;;2.03;1.20;;;;;;;12.14;68.38;102284.34;4961867;29;20389;-71
2023/06/04 02:49:13;;;;;;;3.80;1.58;;;;;;;12.20;68.37;102284.19;4961634;29;20146;-71
2023/06/04 02:51:42;;;;;;;1.50;1.40;;;;;;;12.02;68.76;102280.22;4962173;29;20111;-71
2023/06/04 02:54:07;;;;;;;;;;;;;;;12.10;67.90;102283.53;4962365;29;20203;-71
2023/06/04 02:56:35;;;;;;;2.00;1.60;;;;;;;12.04;68.24;102284.56;4962062;29;19985;-71
2023/06/04 02:59:00;;;;;;;3.47;1.30;;;;;;;12.04;68.40;102278.41;4961938;29;20325;-71
2023/06/04 03:01:26;;;;;;;1.30;1.10;;;;;;;12.06;68.00;102280.13;4962149;29;20050;-71
2023/06/04 03:03:53;;;;;;;1.73;1.08;;;;;;;12.12;67.38;102273.00;4961548;29;20454;-71
2023/06/04 03:06:20;;;;;;;2.25;1.20;;;;;;;12.15;67.73;102275.53;4962461;28;20031;-71
2023/06/04 03:08:46;;;;;;;0.82;0.82;;;;;;;12.02;67.73;102270.56;4961675;29;20325;-71
2023/06/04 03:11:12;;;;;;;1.40;1.30;;;;;;;11.99;67.32;102283.81;4961886;29;20039;-71
2023/06/04 03:13:38;;;;;;;5.18;1.60;;;;;;;12.04;67.38;102273.16;4961565;29;20110;-71
2023/06/04 03:16:09;;;;;;;2.55;1.20;;;;;;;12.00;67.58;102284.66;4969633;28;20375;-71
2023/06/04 03:18:38;;;;;;;2.90;1.30;;;;;;;11.99;67.17;102272.41;4980723;28;20042;-71
2023/06/04 03:21:06;;;;;;;1.00;1.00;;;;;;;11.93;67.24;102278.66;4980844;28;20101;-71
2023/06/04 03:23:33;;;;;;;1.30;1.10;;;;;;;11.89;66.94;102271.75;4980892;28;20081;-71
2023/06/04 03:26:02;;;;;;;1.52;1.20;;;;;;;11.87;66.82;102277.03;4980708;28;20034;-71
2023/06/04 03:28:28;;;;;;;1.50;1.38;;;;;;;11.83;67.64;102283.25;4980967;28;20319;-71
2023/06/04 03:30:53;;;;;;;2.47;1.20;;;;;;;11.87;67.30;102282.28;4980659;28;20038;-71
2023/06/04 03:33:19;;;;;;;1.42;1.33;;;;;;;11.81;67.30;102271.94;4980632;28;20061;-71
2023/06/04 03:35:45;;;;;;;2.78;1.20;;;;;;;11.84;67.53;102278.84;4980792;28;20054;-71
2023/06/04 03:38:10;;;;;;;2.38;1.60;;;;;;;11.79;67.56;102286.84;4980438;28;20417;-71
2023/06/04 03:40:36;;;;;;;2.28;1.23;;;;;;;11.78;66.80;102281.63;4980395;28;20047;-71
2023/06/04 11:00:40;;;;;;;1.40;1.00;;;;;;;18.66;48.32;102341.06;4199113;28;20077;-71
2023/06/04 11:03:09;;;;;;;4.47;1.38;;;;;;;18.76;48.04;102338.81;4980207;28;20051;-71
2023/06/04 11:05:45;;;;;;;2.13;0.98;;;;;;;18.80;48.02;102349.16;4981156;28;20110;-72
2023/06/04 11:08:17;;;;;;;2.08;1.08;;;;;;;18.89;47.23;102355.84;4980655;28;20031;-71
2023/06/04 11:10:44;;;;;;;2.53;1.17;;;;;;;18.89;48.81;102358.50;4981261;28;20301;-71
2023/06/04 11:13:10;;;;;;;7.28;1.40;;;;;;;18.92;48.53;102362.81;4980835;28;20261;-72
2023/06/04 11:15:44;;;;;;;4.72;1.40;;;;;;;19.06;48.80;102354.09;4981187;28;20031;-71
2023/06/04 11:18:20;;;;;;;1.20;1.10;;;;;;;19.15;47.00;102346.50;4980669;28;20408;-72
2023/06/04 11:20:48;;;;;;;2.28;1.20;;;;;;;19.24;46.12;102353.13;4980706;28;20030;-71
2023/06/04 11:23:14;;;;;;;2.10;0.93;;;;;;;19.25;46.45;102343.38;4981083;28;20045;-71
2023/06/04 11:25:42;;;;;;;4.63;1.20;;;;;;;19.30;46.33;102341.31;4981374;28;20274;-72
2023/06/04 11:28:13;;;;;;;3.75;1.35;;;;;;;19.29;44.82;102345.75;4980322;28;20094;-71
2023/06/04 11:30:38;;;;;;;1.55;1.27;;;;;;;19.29;46.51;102344.91;4980689;28;20035;-71
2023/06/04 11:33:05;;;;;;;6.18;1.60;;;;;;;19.32;45.56;102334.97;4979946;28;20357;-71
2023/06/04 11:35:32;;;;;;;4.45;1.45;;;;;;;19.39;46.27;102338.16;4980738;28;20041;-72
2023/06/04 11:37:58;;;;;;;1.30;1.20;;;;;;;19.49;45.50;102334.06;4980111;28;20058;-72
2023/06/04 11:40:26;;;;;;;1.38;1.00;;;;;;;19.54;45.70;102333.81;4981018;28;20372;-71
2023/06/04 11:42:52;;;;;;;4.60;1.40;;;;;;;19.60;43.94;102328.16;4980125;28;20344;-71
2023/06/04 11:45:19;;;;;;;1.52;1.02;;;;;;;19.65;44.25;102322.59;4980499;28;20027;-72
2023/06/04 11:47:48;;;;;;;1.95;1.02;;;;;;;19.67;43.56;102318.06;4980533;28;20062;-72
2023/06/04 11:50:14;;;;;;;2.17;1.48;;;;;;;19.68;43.55;102319.75;4980549;28;20054;-71
2023/06/04 11:52:40;;;;;;;1.83;1.17;;;;;;;19.69;43.72;102319.66;4980532;28;20043;-71
2023/06/04 11:55:12;;;;;;;1.23;1.13;;;;;;;19.73;42.58;102323.91;4980101;28;20042;-72
2023/06/04 11:57:39;;;;;;;1.17;1.02;;;;;;;19.70;42.84;102325.84;4969718;28;20043;-72
2023/06/04 12:00:09;;;;;;;2.78;1.27;;;;;;;19.66;42.13;102321.63;4958577;28;20055;-71
2023/06/04 12:02:47;;;;;;;2.35;1.38;;;;;;;19.63;42.92;102322.69;4972663;28;20056;-71
2023/06/04 12:05:18;;;;;;;5.80;1.40;;;;;;;19.55;41.52;102312.47;4979311;28;20031;-72
2023/06/04 12:07:44;;;;;;;4.85;1.30;;;;;;;19.59;42.58;102312.28;4976043;28;20110;-71
2023/06/04 12:10:11;;;;;;;1.92;1.15;;;;;;;19.61;42.49;102311.28;4976905;28;20042;-71
2023/06/04 12:12:37;;;;;;;1.60;1.10;;;;;;;19.59;41.18;102309.63;4978933;28;20043;-72
2023/06/04 12:15:05;;;;;;;2.15;1.10;;;;;;;19.60;42.36;102314.03;4973705;28;20245;-72
2023/06/04 12:17:32;;;;;;;1.65;1.17;;;;;;;19.63;43.15;102320.03;4974286;28;20273;-71
2023/06/04 12:19:58;;;;;;;1.73;1.33;;;;;;;19.63;42.46;102317.38;4975199;28;20034;-71
2023/06/04 12:22:25;;;;;;;2.58;1.40;;;;;;;19.65;43.22;102318.13;4974983;28;20058;-72
2023/06/04 12:24:55;;;;;;;4.05;1.60;;;;;;;19.69;41.49;102311.69;4975927;28;20031;-71
2023/06/04 12:27:25;;;;;;;2.58;1.40;;;;;;;19.66;41.10;102321.63;4981651;28;20038;-71
2023/06/04 12:30:01;;;;;;;2.28;1.33;;;;;;;19.60;42.46;102309.56;4961692;28;20089;-71
2023/06/04 12:32:27;;;;;;;3.55;1.20;;;;;;;19.64;43.73;102305.78;4979061;28;20225;-72
2023/06/04 12:34:53;;;;;;;4.40;1.52;;;;;;;19.71;44.44;102315.13;4976438;28;21086;-71
2023/06/04 12:37:19;;;;;;;2.95;1.30;;;;;;;19.75;43.82;102313.19;4980742;28;20332;-71
2023/06/04 12:39:44;;;;;;;2.78;1.08;;;;;;;19.79;43.79;102320.03;4977811;28;20030;-71
2023/06/04 12:42:09;;;;;;;2.65;1.33;;;;;;;19.81;43.98;102307.53;4975347;28;20332;-71
2023/06/04 12:44:39;;;;;;;1.33;1.10;;;;;;;19.81;44.02;102317.28;4978664;28;20054;-71
2023/06/04 12:47:05;;;;;;;5.28;1.42;;;;;;;19.82;44.21;102303.06;4978380;28;20341;-71
2023/06/04 12:49:30;;;;;;;2.08;1.23;;;;;;;19.84;44.15;102301.19;4977877;28;20069;-71
2023/06/04 12:51:56;;;;;;;4.05;1.02;;;;;;;19.91;44.55;102316.69;4978201;28;20039;-71
2023/06/04 12:54:21;;;;;;;1.80;1.23;;;;;;;19.94;44.11;102305.03;4978377;28;20123;-71
2023/06/04 12:56:47;;;;;;;3.78;1.60;;;;;;;19.99;42.71;102302.94;4977866;28;20261;-71
2023/06/04 12:59:12;;;;;;;2.55;0.98;;;;;;;19.99;42.89;102310.06;4985345;28;20113;-71
2023/06/04 13:01:38;;;;;;;1.05;0.98;;;;;;;19.95;42.79;102306.72;4980682;28;20062;-71
2023/06/04 13:04:03;;;;;;;0.80;0.80;;;;;;;19.93;42.88;102306.81;4983494;28;20038;-72
2023/06/04 13:06:29;;;;;;;2.05;1.23;;;;;;;19.94;42.88;102305.03;4985984;28;20238;-72
2023/06/04 13:08:54;;;;;;;4.63;1.10;;;;;;;19.94;43.07;102305.88;4979947;28;20049;-72
2023/06/04 13:11:20;;;;;;;2.92;1.40;;;;;;;19.99;43.79;102300.28;4985297;28;20045;-71
2023/06/04 13:13:47;;;;;;;3.88;1.30;;;;;;;19.99;43.45;102297.63;4984194;28;20125;-72
2023/06/04 13:16:13;;;;;;;4.75;0.95;;;;;;;20.00;42.52;102302.03;4983972;28;20031;-71
2023/06/04 13:18:38;;;;;;;1.60;1.25;;;;;;;20.02;43.87;102293.97;4984190;28;20053;-71
2023/06/04 13:21:03;;;;;;;3.00;1.30;;;;;;;20.05;43.40;102297.28;4983924;28;20062;-71
2023/06/04 13:23:29;;;;;;;2.42;1.10;;;;;;;20.13;43.57;102299.50;4975717;28;20038;-71
2023/06/04 13:25:54;;;;;;;2.97;1.10;;;;;;;20.17;42.26;102309.00;4981885;28;20076;-71
2023/06/04 13:28:20;;;;;;;4.95;1.20;;;;;;;20.10;41.85;102303.22;4988092;28;20034;-71
2023/06/04 13:30:46;;;;;;;1.70;1.02;;;;;;;20.11;42.40;102296.94;4988553;28;20046;-71
2023/06/04 13:33:11;;;;;;;1.92;1.33;;;;;;;20.11;41.65;102296.09;4988055;28;20129;-71
2023/06/04 13:35:36;;;;;;;3.85;1.13;;;;;;;20.14;42.77;102302.06;4970992;28;20109;-71
2023/06/04 13:38:04;;;;;;;1.90;1.17;;;;;;;20.20;42.93;102300.88;4983629;28;20050;-71
2023/06/04 13:40:29;;;;;;;1.40;1.15;;;;;;;20.25;42.64;102306.78;4984536;28;20393;-71
2023/06/04 13:42:55;;;;;;;2.65;1.40;;;;;;;20.27;43.30;102290.72;4981025;28;20045;-71
2023/06/04 13:45:21;;;;;;;2.83;1.40;;;;;;;20.26;42.56;102296.97;4982730;28;20329;-71
2023/06/04 13:47:49;;;;;;;1.58;1.10;;;;;;;20.23;42.37;102289.19;4982194;28;20042;-71
2023/06/04 13:50:15;;;;;;;;;;;;;;;20.25;42.19;102288.16;4977847;28;20109;-71
2023/06/04 13:52:40;;;;;;;1.35;1.10;;;;;;;20.25;42.12;102289.97;4979798;28;19958;-72
2023/06/04 13:55:07;;;;;;;4.03;1.15;;;;;;;20.31;42.76;102285.13;4962853;28;20042;-72
2023/06/04 13:57:32;;;;;;;2.65;1.40;;;;;;;20.27;41.78;102275.63;4979103;28;20047;-72
2023/06/04 13:59:58;;;;;;;1.92;1.20;;;;;;;20.27;42.25;102280.09;4978802;28;20078;-72
2023/06/04 14:02:23;;;;;;;2.08;1.30;;;;;;;20.28;43.35;102273.81;4981783;28;20046;-72
2023/06/04 14:04:50;;;;;;;4.95;1.35;;;;;;;20.32;42.67;102278.03;4981235;28;20062;-72
2023/06/04 14:07:16;;;;;;;2.65;1.25;;;;;;;20.34;42.57;102273.47;4983422;28;20078;-72
2023/06/04 14:09:42;;;;;;;2.55;1.40;;;;;;;20.38;42.41;102282.97;4982728;28;20051;-72
2023/06/04 14:12:08;;;;;;;3.38;1.30;;;;;;;20.40;42.10;102275.75;4983254;28;20031;-71
2023/06/04 14:14:36;;;;;;;1.88;1.00;;;;;;;20.40;42.19;102281.06;4985688;28;20034;-71
2023/06/04 14:17:06;;;;;;;2.42;1.27;;;;;;;20.39;42.43;102278.50;4983741;28;20054;-71
2023/06/04 14:19:35;;;;;;;1.35;1.25;;;;;;;20.39;42.42;102278.50;4979583;28;20388;-72
2023/06/04 14:22:01;;;;;;;1.20;1.10;;;;;;;20.39;43.10;102276.72;4982953;28;20049;-72
2023/06/04 14:24:27;;;;;;;2.35;1.50;;;;;;;20.39;43.58;102276.72;4983852;28;20030;-72
2023/06/04 14:26:52;;;;;;;1.55;1.38;;;;;;;20.46;42.90;102277.19;4975909;28;20077;-71
2023/06/04 14:29:18;;;;;;;1.77;1.00;;;;;;;20.51;43.23;102275.94;4975770;28;20026;-71
2023/06/04 14:31:45;;;;;;;2.28;1.45;;;;;;;20.56;43.47;102270.38;4974060;28;20080;-71
2023/06/04 14:34:10;;;;;;;1.95;1.25;;;;;;;20.56;42.71;102273.03;4977866;28;20388;-71
2023/06/04 14:36:35;;;;;;;3.53;1.30;;;;;;;20.60;42.36;102260.41;4979432;28;20086;-71
2023/06/04 14:39:01;;;;;;;7.18;1.42;;;;;;;20.57;41.70;102263.22;4978801;28;20046;-72
2023/06/04 14:41:30;;;;;;;4.00;1.60;;;;;;;20.57;42.18;102266.75;4978546;28;20325;-72
2023/06/04 14:43:55;;;;;;;4.35;1.30;;;;;;;20.56;41.27;102264.19;4978291;28;20118;-71
2023/06/04 14:46:21;;;;;;;1.58;1.13;;;;;;;20.52;41.51;102269.69;4977928;28;20070;-71
2023/06/04 14:48:46;;;;;;;2.58;1.33;;;;;;;20.54;42.52;102261.63;4976959;28;20305;-72
2023/06/04 14:51:12;;;;;;;4.07;1.83;;;;;;;20.63;42.76;102270.88;4979501;28;20019;-71
2023/06/04 14:53:39;;;;;;;2.05;1.40;;;;;;;20.62;42.10;102256.72;4978966;28;20043;-71
2023/06/04 14:56:07;;;;;;;2.90;1.27;;;;;;;20.63;42.35;102257.56;4978975;28;20355;-71
2023/06/04 14:58:33;;;;;;;;;;;;;;;20.62;42.59;102253.19;4980099;28;20030;-71
2023/06/04 15:01:03;;;;;;;2.97;1.50;;;;;;;20.66;42.72;102258.22;4936517;28;1168305;-71
2023/06/04 15:03:29;;;;;;;2.65;1.40;;;;;;;20.67;42.71;102262.63;4979676;28;20031;-71
2023/06/04 15:05:55;;;;;;;3.03;1.30;;;;;;;20.66;42.73;102254.72;4978521;28;20043;-71
2023/06/04 15:08:21;;;;;;;2.50;1.27;;;;;;;20.66;42.48;102249.41;4980402;28;20326;-72
2023/06/04 15:10:46;;;;;;;2.60;1.02;;;;;;;20.65;42.26;102245.88;4979752;28;20051;-72
2023/06/04 15:13:11;;;;;;;1.45;1.13;;;;;;;20.65;43.71;102247.69;4979723;28;20053;-71
2023/06/04 15:15:37;;;;;;;6.45;1.80;;;;;;;20.64;48.69;102251.31;4978054;28;20055;-71
2023/06/04 15:18:02;;;;;;;3.22;1.90;;;;;;;20.57;50.32;102242.78;4978724;28;20060;-71
2023/06/04 15:20:28;;;;;;;10.18;2.65;;;;;;;20.53;50.38;102241.28;4977590;28;20325;-71
2023/06/04 15:22:54;;;;;;;4.65;1.95;;;;;;;20.55;48.60;102241.19;4977145;28;20034;-71
2023/06/04 15:25:19;;;;;;;3.80;1.38;;;;;;;20.55;45.50;102238.53;4978560;28;20031;-72
2023/06/04 15:27:45;;;;;;;4.35;2.13;;;;;;;20.55;47.31;102250.00;4981092;28;20070;-71
2023/06/04 15:30:10;;;;;;;7.93;1.92;;;;;;;20.46;49.50;102242.59;4974873;28;20035;-71
2023/06/04 15:32:36;;;;;;;16.88;2.38;;;;;;;20.44;50.25;102247.16;4977056;28;20169;-71
2023/06/04 15:35:03;;;;;;;3.65;1.65;;;;;;;20.45;49.79;102257.72;4984910;28;20042;-71
2023/06/04 15:37:28;;;;;;;5.75;1.73;;;;;;;20.42;50.48;102249.91;4988565;28;20030;-71
2023/06/04 15:39:54;;;;;;;3.95;2.03;;;;;;;20.41;50.49;102250.00;4973441;28;20100;-71
2023/06/04 15:42:20;;;;;;;4.13;2.00;;;;;;;20.35;51.52;102255.69;4972463;28;20035;-71
2023/06/04 15:44:45;;;;;;;7.30;2.05;;;;;;;20.34;51.59;102249.53;4971679;28;20234;-72
2023/06/04 15:47:11;;;;;;;6.70;2.20;;;;;;;20.29;51.08;102239.13;4969368;28;20249;-72
2023/06/04 15:49:36;;;;;;;6.00;2.53;;;;;;;20.35;52.32;102247.72;4970295;28;20046;-72
2023/06/04 15:52:02;;;;;;;7.82;2.10;;;;;;;20.31;51.36;102242.56;4974403;28;20097;-71
2023/06/04 15:54:27;;;;;;;5.47;1.65;;;;;;;20.27;51.37;102238.38;4978169;28;20044;-71
2023/06/04 15:56:52;;;;;;;3.75;2.65;;;;;;;20.29;52.67;102240.94;4981898;28;20074;-71
2023/06/04 15:59:18;;;;;;;3.83;1.70;;;;;;;20.31;51.68;102245.22;4979736;28;20026;-71
2023/06/04 16:01:44;;;;;;;8.90;1.95;;;;;;;20.32;51.78;102243.44;4981465;28;20106;-71
2023/06/04 16:04:10;;;;;;;6.05;2.00;;;;;;;20.28;51.54;102242.75;4979086;28;20045;-71
2023/06/04 16:06:37;;;;;;;3.22;1.80;;;;;;;20.23;50.96;102239.50;4979808;28;20034;-71
2023/06/04 16:09:03;;;;;;;3.30;1.65;;;;;;;20.25;47.77;102239.44;4979230;28;20045;-71
2023/06/04 16:11:28;;;;;;;3.53;1.25;;;;;;;20.24;46.78;102238.56;4979741;28;20378;-71
2023/06/04 16:13:54;;;;;;;1.83;1.40;;;;;;;20.25;46.62;102231.44;4979451;28;20030;-71
2023/06/04 16:16:19;;;;;;;4.32;1.90;;;;;;;20.27;47.35;102233.06;4980121;28;20049;-71
2023/06/04 16:18:47;;;;;;;3.40;1.65;;;;;;;20.23;47.42;102222.69;4971622;28;20042;-71
2023/06/04 16:21:12;;;;;;;3.37;1.90;;;;;;;20.25;47.26;102220.81;4978679;28;20218;-71
2023/06/04 16:23:38;;;;;;;3.75;2.03;;;;;;;20.27;46.97;102222.41;4978111;28;20310;-71
2023/06/04 16:26:03;;;;;;;2.50;1.40;;;;;;;20.25;47.20;102216.34;4978889;28;20027;-71
2023/06/04 16:28:29;;;;;;;2.78;1.45;;;;;;;20.28;47.69;102220.59;4978822;28;20226;-71
2023/06/04 16:30:54;;;;;;;1.88;1.23;;;;;;;20.30;46.95;102219.59;4976454;28;20042;-71
2023/06/04 16:33:20;;;;;;;2.63;1.80;;;;;;;20.33;47.31;102229.16;4976737;28;20030;-72
2023/06/04 16:35:45;;;;;;;3.28;1.63;;;;;;;20.32;47.18;102220.34;4976502;28;20054;-71
2023/06/04 16:38:11;;;;;;;3.60;1.70;;;;;;;20.28;47.52;102218.81;4975887;28;20031;-72
2023/06/04 16:40:36;;;;;;;2.72;1.58;;;;;;;20.26;47.03;102225.16;4976625;28;20050;-72
2023/06/04 16:43:02;;;;;;;5.65;1.67;;;;;;;20.21;47.32;102227.22;4977054;28;20620;-72
2023/06/04 16:45:27;;;;;;;3.88;1.65;;;;;;;20.14;47.54;102224.94;4979148;28;20030;-72
2023/06/04 16:47:53;;;;;;;6.30;1.33;;;;;;;20.14;47.55;102216.97;4978804;28;20369;-72
2023/06/04 16:50:18;;;;;;;5.78;1.80;;;;;;;20.10;47.91;102215.44;4978688;28;20034;-72
2023/06/04 16:52:44;;;;;;;2.35;2.05;;;;;;;20.09;47.91;102223.53;4979405;28;20428;-71
2023/06/04 16:55:10;;;;;;;6.35;2.05;;;;;;;20.09;47.88;102213.72;4978737;28;20053;-72
2023/06/04 16:57:36;;;;;;;3.58;1.67;;;;;;;20.12;48.29;102223.34;4979235;28;20030;-72
2023/06/04 17:00:03;;;;;;;2.97;1.58;;;;;;;20.09;48.41;102212.88;4978538;28;20042;-71
2023/06/04 17:02:28;;;;;;;5.10;1.63;;;;;;;20.06;48.46;102211.25;4978897;28;20579;-71
2023/06/04 17:04:54;;;;;;;2.97;1.90;;;;;;;20.06;48.36;102215.72;4978226;28;20066;-72
2023/06/04 17:07:20;;;;;;;3.28;1.67;;;;;;;20.05;47.92;102220.19;4979178;28;20110;-72
2023/06/04 17:09:45;;;;;;;1.88;1.20;;;;;;;20.02;48.05;102212.38;4978946;28;20245;-71
2023/06/04 17:12:11;;;;;;;3.00;1.65;;;;;;;19.98;47.96;102213.50;4978740;28;20081;-72
2023/06/04 17:14:36;;;;;;;2.85;1.50;;;;;;;19.94;47.80;102212.84;4978927;28;20042;-72
2023/06/04 17:17:02;;;;;;;1.98;1.70;;;;;;;19.89;48.18;102217.56;4978401;28;20112;-71
2023/06/04 17:19:27;;;;;;;3.35;1.83;;;;;;;19.86;48.56;102211.56;4978875;28;20031;-71
2023/06/04 17:21:53;;;;;;;3.65;1.63;;;;;;;19.85;49.54;102216.03;4978136;28;20681;-71
2023/06/04 17:24:18;;;;;;;5.28;2.03;;;;;;;19.85;50.82;102225.81;4978844;28;20035;-71
2023/06/04 17:26:44;;;;;;;6.53;2.00;;;;;;;19.80;50.83;102220.75;4961260;28;20137;-71
2023/06/04 17:29:10;;;;;;;4.28;1.90;;;;;;;19.71;51.27;102216.78;4978131;28;20046;-72
2023/06/04 17:31:35;;;;;;;2.03;1.75;;;;;;;19.58;51.83;102225.56;4978886;28;20027;-71
2023/06/04 17:34:00;;;;;;;4.18;1.73;;;;;;;19.57;52.30;102227.34;4977968;28;20357;-72
2023/06/04 17:36:26;;;;;;;6.32;1.80;;;;;;;19.51;52.27;102223.25;4978919;28;20034;-71
2023/06/04 17:38:52;;;;;;;3.58;1.80;;;;;;;19.47;52.37;102231.47;4977853;28;20035;-71
2023/06/04 17:41:17;;;;;;;2.83;1.70;;;;;;;19.45;52.79;102230.72;4978625;28;20058;-72
2023/06/04 17:43:43;;;;;;;6.53;1.70;;;;;;;19.45;53.12;102230.72;4978620;28;20045;-72
2023/06/04 17:46:09;;;;;;;2.83;1.63;;;;;;;19.40;53.56;102227.47;4978188;28;20030;-71
2023/06/04 17:48:35;;;;;;;3.47;1.83;;;;;;;19.34;53.49;102236.63;4978496;28;20250;-71
2023/06/04 17:51:01;;;;;;;3.60;1.90;;;;;;;19.28;53.52;102232.50;4978351;28;20049;-71
2023/06/04 17:53:27;;;;;;;2.75;1.67;;;;;;;19.24;54.05;102241.56;4978633;28;20348;-71
2023/06/04 17:55:53;;;;;;;3.85;1.90;;;;;;;19.19;54.36;102238.31;4977796;28;20090;-71
2023/06/04 17:58:20;;;;;;;2.58;2.17;;;;;;;19.17;54.35;102234.88;4978606;28;20030;-71
2023/06/04 18:00:45;;;;;;;4.38;1.90;;;;;;;19.15;54.73;102242.06;4978154;28;20132;-71
2023/06/04 18:03:14;;;;;;;3.53;2.10;;;;;;;19.11;54.87;102240.53;4977896;28;20097;-71
2023/06/04 18:05:39;;;;;;;5.00;1.77;;;;;;;18.99;55.07;102248.25;4977956;28;20035;-71
2023/06/04 18:08:05;;;;;;;4.18;1.77;;;;;;;18.93;55.88;102245.91;4979427;28;20058;-71
2023/06/04 18:10:30;;;;;;;5.00;2.00;;;;;;;18.87;55.67;102250.69;4982092;28;20035;-71
2023/06/04 18:12:56;;;;;;;4.82;2.30;;;;;;;18.84;55.91;102256.16;4981660;28;20050;-71
2023/06/04 18:15:21;;;;;;;4.00;2.13;;;;;;;18.79;56.17;102253.69;4981682;28;20045;-71
2023/06/04 18:17:47;;;;;;;3.28;1.90;;;;;;;18.73;56.13;102251.38;4981759;28;20458;-71
2023/06/04 18:20:12;;;;;;;6.22;2.38;;;;;;;18.66;56.53;102244.69;4981799;28;20043;-71
2023/06/04 18:22:39;;;;;;;5.47;1.90;;;;;;;18.56;56.85;102270.84;4981991;28;20053;-71
2023/06/04 18:25:07;;;;;;;4.15;1.90;;;;;;;18.50;56.65;102261.41;4981242;28;20026;-71
2023/06/04 18:27:36;;;;;;;2.50;1.60;;;;;;;18.51;56.95;102270.22;4981929;28;20102;-71
2023/06/04 18:30:03;;;;;;;6.82;2.20;;;;;;;18.36;57.00;102270.06;4980885;28;20054;-71
2023/06/04 18:32:29;;;;;;;2.92;1.77;;;;;;;18.23;57.48;102255.72;4981860;28;20099;-71
2023/06/04 18:34:54;;;;;;;2.53;1.73;;;;;;;18.20;57.77;102256.72;4980705;28;20045;-71
2023/06/04 18:37:20;;;;;;;4.65;2.22;;;;;;;18.15;57.80;102264.03;4981802;28;20058;-71
2023/06/04 18:39:45;;;;;;;7.53;2.00;;;;;;;18.10;58.31;102260.78;4981770;28;20089;-71
2023/06/04 18:42:11;;;;;;;3.25;2.33;;;;;;;18.04;58.25;102258.41;4980890;28;20045;-71
2023/06/04 18:44:37;;;;;;;6.45;2.10;;;;;;;17.97;58.81;102257.88;4973634;28;20033;-71